sensor_id;sensor_type;location;lat;lon;timestamp;P1;durP1;ratioP1;P2;durP2;ratioP2
29382;SDS011;16365;51.598;7.668;2023-03-01T00:00:04;17.55;;;9.43;;
29382;SDS011;16365;51.598;7.668;2023-03-01T00:02:31;18.38;;;9.60;;
29382;SDS011;16365;51.598;7.668;2023-03-01T00:04:57;16.35;;;9.23;;
29382;SDS011;16365;51.598;7.668;2023-03-01T00:07:24;26.25;;;10.55;;
29382;SDS011;16365;51.598;7.668;2023-03-01T00:09:50;14.70;;;8.48;;
29382;SDS011;16365;51.598;7.668;2023-03-01T00:12:16;18.67;;;10.27;;
29382;SDS011;16365;51.598;7.668;2023-03-01T00:14:43;18.90;;;9.40;;
29382;SDS011;16365;51.598;7.668;2023-03-01T00:17:10;18.83;;;9.77;;
29382;SDS011;16365;51.598;7.668;2023-03-01T00:19:37;19.15;;;9.80;;
29382;SDS011;16365;51.598;7.668;2023-03-01T00:22:03;20.58;;;10.50;;
29382;SDS011;16365;51.598;7.668;2023-03-01T00:24:30;19.70;;;10.05;;
29382;SDS011;16365;51.598;7.668;2023-03-01T00:26:56;17.27;;;8.93;;
29382;SDS011;16365;51.598;7.668;2023-03-01T00:29:23;19.35;;;9.65;;
29382;SDS011;16365;51.598;7.668;2023-03-01T00:31:50;16.67;;;9.23;;
29382;SDS011;16365;51.598;7.668;2023-03-01T00:34:17;19.20;;;9.55;;
29382;SDS011;16365;51.598;7.668;2023-03-01T00:36:44;19.98;;;10.45;;
29382;SDS011;16365;51.598;7.668;2023-03-01T00:39:11;16.25;;;9.27;;
29382;SDS011;16365;51.598;7.668;2023-03-01T00:41:41;19.17;;;9.65;;
29382;SDS011;16365;51.598;7.668;2023-03-01T00:44:08;16.63;;;9.90;;
29382;SDS011;16365;51.598;7.668;2023-03-01T00:46:35;17.90;;;9.57;;
29382;SDS011;16365;51.598;7.668;2023-03-01T00:49:01;23.23;;;11.38;;
29382;SDS011;16365;51.598;7.668;2023-03-01T00:51:30;17.33;;;9.45;;
29382;SDS011;16365;51.598;7.668;2023-03-01T00:53:59;17.40;;;10.20;;
29382;SDS011;16365;51.598;7.668;2023-03-01T00:56:27;19.25;;;9.68;;
29382;SDS011;16365;51.598;7.668;2023-03-01T00:58:55;18.50;;;9.90;;
29382;SDS011;16365;51.598;7.668;2023-03-01T01:01:23;19.25;;;10.10;;
29382;SDS011;16365;51.598;7.668;2023-03-01T01:03:54;19.25;;;10.18;;
29382;SDS011;16365;51.598;7.668;2023-03-01T01:06:24;18.42;;;9.82;;
29382;SDS011;16365;51.598;7.668;2023-03-01T01:08:52;15.18;;;9.23;;
29382;SDS011;16365;51.598;7.668;2023-03-01T01:11:21;20.50;;;10.20;;
29382;SDS011;16365;51.598;7.668;2023-03-01T01:13:49;20.38;;;9.82;;
29382;SDS011;16365;51.598;7.668;2023-03-01T01:16:16;20.80;;;10.60;;
29382;SDS011;16365;51.598;7.668;2023-03-01T01:18:46;17.15;;;8.75;;
29382;SDS011;16365;51.598;7.668;2023-03-01T01:21:14;16.45;;;9.43;;
29382;SDS011;16365;51.598;7.668;2023-03-01T01:23:44;19.17;;;9.82;;
29382;SDS011;16365;51.598;7.668;2023-03-01T01:26:12;19.55;;;9.85;;
29382;SDS011;16365;51.598;7.668;2023-03-01T01:28:40;17.42;;;9.15;;
29382;SDS011;16365;51.598;7.668;2023-03-01T01:31:08;21.45;;;9.60;;
29382;SDS011;16365;51.598;7.668;2023-03-01T01:33:34;15.95;;;9.38;;
29382;SDS011;16365;51.598;7.668;2023-03-01T01:36:01;18.05;;;9.82;;
29382;SDS011;16365;51.598;7.668;2023-03-01T01:38:27;20.20;;;9.85;;
29382;SDS011;16365;51.598;7.668;2023-03-01T01:40:54;16.15;;;9.65;;
29382;SDS011;16365;51.598;7.668;2023-03-01T01:43:25;18.88;;;10.00;;
29382;SDS011;16365;51.598;7.668;2023-03-01T01:45:57;17.50;;;9.30;;
29382;SDS011;16365;51.598;7.668;2023-03-01T01:48:29;16.88;;;8.90;;
29382;SDS011;16365;51.598;7.668;2023-03-01T01:51:07;19.23;;;9.38;;
29382;SDS011;16365;51.598;7.668;2023-03-01T01:53:38;17.65;;;9.73;;
29382;SDS011;16365;51.598;7.668;2023-03-01T01:58:34;13.98;;;8.02;;
29382;SDS011;16365;51.598;7.668;2023-03-01T02:01:01;18.85;;;8.60;;
29382;SDS011;16365;51.598;7.668;2023-03-01T02:03:30;18.25;;;9.38;;
29382;SDS011;16365;51.598;7.668;2023-03-01T02:08:36;16.70;;;8.73;;
29382;SDS011;16365;51.598;7.668;2023-03-01T02:11:04;13.25;;;8.30;;
29382;SDS011;16365;51.598;7.668;2023-03-01T02:13:32;15.63;;;8.98;;
29382;SDS011;16365;51.598;7.668;2023-03-01T02:16:02;17.60;;;9.07;;
29382;SDS011;16365;51.598;7.668;2023-03-01T02:18:30;14.57;;;8.60;;
29382;SDS011;16365;51.598;7.668;2023-03-01T02:23:59;18.05;;;8.65;;
29382;SDS011;16365;51.598;7.668;2023-03-01T02:26:40;16.08;;;9.00;;
29382;SDS011;16365;51.598;7.668;2023-03-01T02:29:11;17.83;;;10.07;;
29382;SDS011;16365;51.598;7.668;2023-03-01T02:31:37;19.02;;;10.30;;
29382;SDS011;16365;51.598;7.668;2023-03-01T02:37:02;23.00;;;9.88;;
29382;SDS011;16365;51.598;7.668;2023-03-01T02:39:37;14.55;;;8.60;;
29382;SDS011;16365;51.598;7.668;2023-03-01T02:42:09;17.70;;;9.23;;
29382;SDS011;16365;51.598;7.668;2023-03-01T02:44:38;19.67;;;9.45;;
29382;SDS011;16365;51.598;7.668;2023-03-01T02:47:05;18.60;;;9.68;;
29382;SDS011;16365;51.598;7.668;2023-03-01T02:49:33;20.58;;;10.38;;
29382;SDS011;16365;51.598;7.668;2023-03-01T02:54:51;18.23;;;9.95;;
29382;SDS011;16365;51.598;7.668;2023-03-01T02:57:23;18.85;;;10.25;;
29382;SDS011;16365;51.598;7.668;2023-03-01T02:59:51;25.58;;;11.02;;
29382;SDS011;16365;51.598;7.668;2023-03-01T03:02:22;28.45;;;9.52;;
29382;SDS011;16365;51.598;7.668;2023-03-01T03:05:03;19.58;;;9.55;;
29382;SDS011;16365;51.598;7.668;2023-03-01T03:07:40;18.17;;;10.00;;
29382;SDS011;16365;51.598;7.668;2023-03-01T03:12:37;20.45;;;9.48;;
29382;SDS011;16365;51.598;7.668;2023-03-01T03:15:04;18.85;;;10.25;;
29382;SDS011;16365;51.598;7.668;2023-03-01T03:17:35;24.30;;;10.10;;
29382;SDS011;16365;51.598;7.668;2023-03-01T03:20:06;26.05;;;10.73;;
29382;SDS011;16365;51.598;7.668;2023-03-01T03:22:40;21.67;;;10.63;;
29382;SDS011;16365;51.598;7.668;2023-03-01T03:25:07;19.33;;;10.20;;
29382;SDS011;16365;51.598;7.668;2023-03-01T03:27:38;20.17;;;9.65;;
29382;SDS011;16365;51.598;7.668;2023-03-01T03:30:05;21.88;;;10.70;;
29382;SDS011;16365;51.598;7.668;2023-03-01T03:32:39;20.60;;;10.93;;
29382;SDS011;16365;51.598;7.668;2023-03-01T03:37:36;16.85;;;9.13;;
29382;SDS011;16365;51.598;7.668;2023-03-01T03:40:22;20.80;;;10.25;;
29382;SDS011;16365;51.598;7.668;2023-03-01T03:42:49;22.92;;;11.23;;
29382;SDS011;16365;51.598;7.668;2023-03-01T03:45:16;27.00;;;12.45;;
29382;SDS011;16365;51.598;7.668;2023-03-01T03:47:43;23.02;;;11.02;;
29382;SDS011;16365;51.598;7.668;2023-03-01T03:50:11;42.42;;;16.17;;
29382;SDS011;16365;51.598;7.668;2023-03-01T03:52:40;32.28;;;13.98;;
29382;SDS011;16365;51.598;7.668;2023-03-01T03:55:07;25.23;;;12.75;;
29382;SDS011;16365;51.598;7.668;2023-03-01T03:57:37;20.73;;;11.13;;
29382;SDS011;16365;51.598;7.668;2023-03-01T04:00:04;20.92;;;10.75;;
29382;SDS011;16365;51.598;7.668;2023-03-01T04:02:39;20.30;;;10.40;;
29382;SDS011;16365;51.598;7.668;2023-03-01T04:05:07;23.42;;;11.57;;
29382;SDS011;16365;51.598;7.668;2023-03-01T04:07:35;16.65;;;9.90;;
29382;SDS011;16365;51.598;7.668;2023-03-01T04:10:03;24.30;;;9.93;;
29382;SDS011;16365;51.598;7.668;2023-03-01T04:12:34;20.33;;;9.38;;
29382;SDS011;16365;51.598;7.668;2023-03-01T04:15:01;21.17;;;10.90;;
29382;SDS011;16365;51.598;7.668;2023-03-01T04:17:39;23.67;;;10.75;;
29382;SDS011;16365;51.598;7.668;2023-03-01T04:20:14;22.40;;;11.00;;
29382;SDS011;16365;51.598;7.668;2023-03-01T04:23:12;24.40;;;10.82;;
29382;SDS011;16365;51.598;7.668;2023-03-01T04:26:03;19.58;;;10.52;;
29382;SDS011;16365;51.598;7.668;2023-03-01T04:28:36;30.85;;;11.32;;
29382;SDS011;16365;51.598;7.668;2023-03-01T04:31:07;19.63;;;10.90;;
29382;SDS011;16365;51.598;7.668;2023-03-01T04:33:44;16.50;;;10.07;;
29382;SDS011;16365;51.598;7.668;2023-03-01T04:36:19;18.75;;;10.68;;
29382;SDS011;16365;51.598;7.668;2023-03-01T04:38:48;23.48;;;11.73;;
29382;SDS011;16365;51.598;7.668;2023-03-01T04:41:15;21.17;;;11.60;;
29382;SDS011;16365;51.598;7.668;2023-03-01T04:43:43;20.67;;;10.40;;
29382;SDS011;16365;51.598;7.668;2023-03-01T04:46:11;19.33;;;10.50;;
29382;SDS011;16365;51.598;7.668;2023-03-01T04:48:42;21.88;;;11.88;;
29382;SDS011;16365;51.598;7.668;2023-03-01T04:51:10;25.10;;;11.70;;
29382;SDS011;16365;51.598;7.668;2023-03-01T04:53:40;21.00;;;11.20;;
29382;SDS011;16365;51.598;7.668;2023-03-01T04:56:07;28.63;;;11.52;;
29382;SDS011;16365;51.598;7.668;2023-03-01T04:58:34;21.80;;;11.43;;
29382;SDS011;16365;51.598;7.668;2023-03-01T05:01:00;23.55;;;11.45;;
29382;SDS011;16365;51.598;7.668;2023-03-01T05:03:27;23.38;;;11.18;;
29382;SDS011;16365;51.598;7.668;2023-03-01T05:05:58;26.20;;;12.20;;
29382;SDS011;16365;51.598;7.668;2023-03-01T05:08:26;23.17;;;11.32;;
29382;SDS011;16365;51.598;7.668;2023-03-01T05:10:53;29.00;;;12.18;;
29382;SDS011;16365;51.598;7.668;2023-03-01T05:13:20;25.13;;;10.87;;
29382;SDS011;16365;51.598;7.668;2023-03-01T05:15:57;21.02;;;12.15;;
29382;SDS011;16365;51.598;7.668;2023-03-01T05:21:05;28.00;;;11.20;;
29382;SDS011;16365;51.598;7.668;2023-03-01T05:23:34;26.27;;;10.98;;
29382;SDS011;16365;51.598;7.668;2023-03-01T05:26:06;22.98;;;10.80;;
29382;SDS011;16365;51.598;7.668;2023-03-01T05:28:52;24.98;;;11.15;;
29382;SDS011;16365;51.598;7.668;2023-03-01T05:31:23;23.38;;;12.23;;
29382;SDS011;16365;51.598;7.668;2023-03-01T05:33:51;25.52;;;12.57;;
29382;SDS011;16365;51.598;7.668;2023-03-01T05:36:21;25.55;;;11.40;;
29382;SDS011;16365;51.598;7.668;2023-03-01T05:38:49;28.52;;;12.10;;
29382;SDS011;16365;51.598;7.668;2023-03-01T05:41:17;34.97;;;14.30;;
29382;SDS011;16365;51.598;7.668;2023-03-01T05:43:44;22.30;;;12.13;;
29382;SDS011;16365;51.598;7.668;2023-03-01T05:46:12;30.45;;;12.07;;
29382;SDS011;16365;51.598;7.668;2023-03-01T05:48:41;21.73;;;10.57;;
29382;SDS011;16365;51.598;7.668;2023-03-01T05:51:08;22.80;;;12.23;;
29382;SDS011;16365;51.598;7.668;2023-03-01T05:53:39;24.23;;;12.02;;
29382;SDS011;16365;51.598;7.668;2023-03-01T05:56:07;24.20;;;12.40;;
29382;SDS011;16365;51.598;7.668;2023-03-01T05:58:34;28.27;;;13.75;;
29382;SDS011;16365;51.598;7.668;2023-03-01T06:01:01;27.95;;;13.15;;
29382;SDS011;16365;51.598;7.668;2023-03-01T06:03:27;30.40;;;12.35;;
29382;SDS011;16365;51.598;7.668;2023-03-01T06:08:25;25.20;;;12.32;;
29382;SDS011;16365;51.598;7.668;2023-03-01T06:10:56;30.80;;;12.88;;
29382;SDS011;16365;51.598;7.668;2023-03-01T06:13:24;29.10;;;12.60;;
29382;SDS011;16365;51.598;7.668;2023-03-01T06:16:14;30.42;;;12.25;;
29382;SDS011;16365;51.598;7.668;2023-03-01T06:18:41;27.42;;;13.15;;
29382;SDS011;16365;51.598;7.668;2023-03-01T06:21:08;29.30;;;13.05;;
29382;SDS011;16365;51.598;7.668;2023-03-01T06:23:35;36.47;;;13.37;;
29382;SDS011;16365;51.598;7.668;2023-03-01T06:26:04;33.63;;;13.30;;
29382;SDS011;16365;51.598;7.668;2023-03-01T06:28:32;26.92;;;12.15;;
29382;SDS011;16365;51.598;7.668;2023-03-01T06:30:58;35.55;;;14.00;;
29382;SDS011;16365;51.598;7.668;2023-03-01T06:33:25;28.95;;;13.02;;
29382;SDS011;16365;51.598;7.668;2023-03-01T06:35:56;31.25;;;13.25;;
29382;SDS011;16365;51.598;7.668;2023-03-01T06:38:24;32.05;;;14.23;;
29382;SDS011;16365;51.598;7.668;2023-03-01T06:40:51;34.75;;;14.30;;
29382;SDS011;16365;51.598;7.668;2023-03-01T06:43:20;30.92;;;13.63;;
29382;SDS011;16365;51.598;7.668;2023-03-01T06:45:47;36.60;;;14.63;;
29382;SDS011;16365;51.598;7.668;2023-03-01T06:48:13;28.23;;;13.23;;
29382;SDS011;16365;51.598;7.668;2023-03-01T06:50:40;27.65;;;13.52;;
29382;SDS011;16365;51.598;7.668;2023-03-01T06:53:07;22.23;;;12.45;;
29382;SDS011;16365;51.598;7.668;2023-03-01T06:55:33;26.90;;;13.07;;
29382;SDS011;16365;51.598;7.668;2023-03-01T06:58:00;26.20;;;12.82;;
29382;SDS011;16365;51.598;7.668;2023-03-01T07:00:28;20.73;;;12.25;;
29382;SDS011;16365;51.598;7.668;2023-03-01T07:02:55;28.95;;;13.27;;
29382;SDS011;16365;51.598;7.668;2023-03-01T07:05:24;23.27;;;12.20;;
29382;SDS011;16365;51.598;7.668;2023-03-01T07:07:51;28.90;;;12.60;;
29382;SDS011;16365;51.598;7.668;2023-03-01T07:10:19;21.23;;;11.55;;
29382;SDS011;16365;51.598;7.668;2023-03-01T07:12:46;23.30;;;11.48;;
29382;SDS011;16365;51.598;7.668;2023-03-01T07:15:12;28.55;;;11.70;;
29382;SDS011;16365;51.598;7.668;2023-03-01T07:17:41;25.73;;;11.90;;
29382;SDS011;16365;51.598;7.668;2023-03-01T07:20:08;25.67;;;12.38;;
29382;SDS011;16365;51.598;7.668;2023-03-01T07:22:35;22.42;;;12.13;;
29382;SDS011;16365;51.598;7.668;2023-03-01T07:25:01;23.73;;;12.57;;
29382;SDS011;16365;51.598;7.668;2023-03-01T07:27:27;21.40;;;11.95;;
29382;SDS011;16365;51.598;7.668;2023-03-01T07:29:54;26.40;;;12.60;;
29382;SDS011;16365;51.598;7.668;2023-03-01T07:32:20;23.60;;;12.18;;
29382;SDS011;16365;51.598;7.668;2023-03-01T07:34:47;23.08;;;12.63;;
29382;SDS011;16365;51.598;7.668;2023-03-01T07:37:14;22.92;;;11.27;;
29382;SDS011;16365;51.598;7.668;2023-03-01T07:39:40;25.33;;;11.52;;
29382;SDS011;16365;51.598;7.668;2023-03-01T07:42:07;21.60;;;10.48;;
29382;SDS011;16365;51.598;7.668;2023-03-01T07:44:34;23.57;;;11.50;;
29382;SDS011;16365;51.598;7.668;2023-03-01T07:47:02;21.83;;;11.00;;
29382;SDS011;16365;51.598;7.668;2023-03-01T07:49:30;21.52;;;11.60;;
29382;SDS011;16365;51.598;7.668;2023-03-01T07:51:57;24.75;;;11.15;;
29382;SDS011;16365;51.598;7.668;2023-03-01T07:54:23;24.25;;;10.63;;
29382;SDS011;16365;51.598;7.668;2023-03-01T07:56:50;19.80;;;10.75;;
29382;SDS011;16365;51.598;7.668;2023-03-01T07:59:17;19.67;;;11.10;;
29382;SDS011;16365;51.598;7.668;2023-03-01T08:01:43;26.88;;;11.32;;
29382;SDS011;16365;51.598;7.668;2023-03-01T08:04:10;22.83;;;10.88;;
29382;SDS011;16365;51.598;7.668;2023-03-01T08:06:36;22.58;;;12.48;;
29382;SDS011;16365;51.598;7.668;2023-03-01T08:09:03;25.35;;;11.77;;
29382;SDS011;16365;51.598;7.668;2023-03-01T08:11:29;21.25;;;10.77;;
29382;SDS011;16365;51.598;7.668;2023-03-01T08:13:56;23.20;;;11.25;;
29382;SDS011;16365;51.598;7.668;2023-03-01T08:16:24;30.17;;;11.85;;
29382;SDS011;16365;51.598;7.668;2023-03-01T08:18:51;21.52;;;11.43;;
29382;SDS011;16365;51.598;7.668;2023-03-01T08:21:17;26.25;;;11.75;;
29382;SDS011;16365;51.598;7.668;2023-03-01T08:23:44;21.08;;;11.38;;
29382;SDS011;16365;51.598;7.668;2023-03-01T08:26:16;30.92;;;12.30;;
29382;SDS011;16365;51.598;7.668;2023-03-01T08:28:45;20.00;;;10.55;;
29382;SDS011;16365;51.598;7.668;2023-03-01T08:31:20;20.27;;;10.55;;
29382;SDS011;16365;51.598;7.668;2023-03-01T08:33:47;20.77;;;10.07;;
29382;SDS011;16365;51.598;7.668;2023-03-01T08:36:23;23.25;;;11.13;;
29382;SDS011;16365;51.598;7.668;2023-03-01T08:38:51;29.77;;;9.98;;
29382;SDS011;16365;51.598;7.668;2023-03-01T08:41:20;18.88;;;10.93;;
29382;SDS011;16365;51.598;7.668;2023-03-01T08:43:47;21.73;;;10.85;;
29382;SDS011;16365;51.598;7.668;2023-03-01T08:46:16;17.92;;;10.20;;
29382;SDS011;16365;51.598;7.668;2023-03-01T08:48:42;19.63;;;10.60;;
29382;SDS011;16365;51.598;7.668;2023-03-01T08:51:10;18.95;;;10.15;;
29382;SDS011;16365;51.598;7.668;2023-03-01T08:53:39;21.10;;;10.90;;
29382;SDS011;16365;51.598;7.668;2023-03-01T08:56:10;20.20;;;10.00;;
29382;SDS011;16365;51.598;7.668;2023-03-01T08:58:38;16.02;;;9.57;;
29382;SDS011;16365;51.598;7.668;2023-03-01T09:01:08;18.17;;;9.52;;
29382;SDS011;16365;51.598;7.668;2023-03-01T09:03:35;18.83;;;9.93;;
29382;SDS011;16365;51.598;7.668;2023-03-01T09:06:06;21.48;;;10.10;;
29382;SDS011;16365;51.598;7.668;2023-03-01T09:08:34;17.67;;;9.95;;
29382;SDS011;16365;51.598;7.668;2023-03-01T09:13:32;20.52;;;9.90;;
29382;SDS011;16365;51.598;7.668;2023-03-01T09:15:59;19.40;;;9.80;;
29382;SDS011;16365;51.598;7.668;2023-03-01T09:21:00;17.10;;;8.98;;
29382;SDS011;16365;51.598;7.668;2023-03-01T09:23:28;17.17;;;9.45;;
29382;SDS011;16365;51.598;7.668;2023-03-01T09:25:55;19.40;;;9.52;;
29382;SDS011;16365;51.598;7.668;2023-03-01T09:28:21;15.50;;;8.63;;
29382;SDS011;16365;51.598;7.668;2023-03-01T09:30:58;17.42;;;9.07;;
29382;SDS011;16365;51.598;7.668;2023-03-01T09:33:53;17.95;;;9.50;;
29382;SDS011;16365;51.598;7.668;2023-03-01T09:36:22;16.92;;;9.07;;
29382;SDS011;16365;51.598;7.668;2023-03-01T09:38:51;17.67;;;9.05;;
29382;SDS011;16365;51.598;7.668;2023-03-01T09:44:16;18.08;;;10.15;;
29382;SDS011;16365;51.598;7.668;2023-03-01T09:46:45;20.50;;;10.20;;
29382;SDS011;16365;51.598;7.668;2023-03-01T09:49:14;27.92;;;10.73;;
29382;SDS011;16365;51.598;7.668;2023-03-01T09:51:49;17.52;;;9.40;;
29382;SDS011;16365;51.598;7.668;2023-03-01T09:54:21;17.02;;;9.13;;
29382;SDS011;16365;51.598;7.668;2023-03-01T09:57:05;19.65;;;10.02;;
29382;SDS011;16365;51.598;7.668;2023-03-01T09:59:44;23.13;;;8.80;;
29382;SDS011;16365;51.598;7.668;2023-03-01T10:02:33;19.55;;;9.13;;
29382;SDS011;16365;51.598;7.668;2023-03-01T10:05:21;16.63;;;8.75;;
29382;SDS011;16365;51.598;7.668;2023-03-01T10:08:02;16.27;;;8.43;;
29382;SDS011;16365;51.598;7.668;2023-03-01T10:10:44;16.38;;;8.77;;
29382;SDS011;16365;51.598;7.668;2023-03-01T10:13:17;19.60;;;9.07;;
29382;SDS011;16365;51.598;7.668;2023-03-01T10:15:51;19.08;;;8.15;;
29382;SDS011;16365;51.598;7.668;2023-03-01T10:18:31;17.23;;;8.32;;
29382;SDS011;16365;51.598;7.668;2023-03-01T10:21:01;17.42;;;8.85;;
29382;SDS011;16365;51.598;7.668;2023-03-01T10:23:32;17.55;;;8.82;;
29382;SDS011;16365;51.598;7.668;2023-03-01T10:29:03;17.33;;;8.63;;
29382;SDS011;16365;51.598;7.668;2023-03-01T10:34:13;13.68;;;7.97;;
29382;SDS011;16365;51.598;7.668;2023-03-01T10:36:47;15.30;;;8.20;;
29382;SDS011;16365;51.598;7.668;2023-03-01T10:39:20;14.80;;;8.45;;
29382;SDS011;16365;51.598;7.668;2023-03-01T10:41:56;17.15;;;8.48;;
29382;SDS011;16365;51.598;7.668;2023-03-01T10:44:41;17.27;;;8.98;;
29382;SDS011;16365;51.598;7.668;2023-03-01T10:47:23;14.15;;;7.30;;
29382;SDS011;16365;51.598;7.668;2023-03-01T10:50:03;17.02;;;9.10;;
29382;SDS011;16365;51.598;7.668;2023-03-01T10:52:35;17.83;;;8.73;;
29382;SDS011;16365;51.598;7.668;2023-03-01T10:55:17;18.88;;;9.65;;
29382;SDS011;16365;51.598;7.668;2023-03-01T10:58:15;15.52;;;8.70;;
29382;SDS011;16365;51.598;7.668;2023-03-01T11:00:47;15.18;;;8.98;;
29382;SDS011;16365;51.598;7.668;2023-03-01T11:03:21;20.17;;;9.60;;
29382;SDS011;16365;51.598;7.668;2023-03-01T11:05:51;17.80;;;9.30;;
29382;SDS011;16365;51.598;7.668;2023-03-01T11:08:34;15.73;;;9.00;;
29382;SDS011;16365;51.598;7.668;2023-03-01T11:13:59;15.25;;;9.13;;
29382;SDS011;16365;51.598;7.668;2023-03-01T11:17:04;16.17;;;9.15;;
29382;SDS011;16365;51.598;7.668;2023-03-01T11:19:38;20.45;;;9.45;;
29382;SDS011;16365;51.598;7.668;2023-03-01T11:22:07;18.13;;;9.57;;
29382;SDS011;16365;51.598;7.668;2023-03-01T11:24:45;18.30;;;9.82;;
29382;SDS011;16365;51.598;7.668;2023-03-01T11:27:30;20.80;;;10.23;;
29382;SDS011;16365;51.598;7.668;2023-03-01T11:30:03;21.67;;;10.27;;
29382;SDS011;16365;51.598;7.668;2023-03-01T11:32:45;16.67;;;9.32;;
29382;SDS011;16365;51.598;7.668;2023-03-01T11:35:22;17.10;;;9.85;;
29382;SDS011;16365;51.598;7.668;2023-03-01T11:38:09;17.67;;;9.90;;
29382;SDS011;16365;51.598;7.668;2023-03-01T11:41:03;20.45;;;9.00;;
29382;SDS011;16365;51.598;7.668;2023-03-01T11:43:56;16.80;;;9.57;;
29382;SDS011;16365;51.598;7.668;2023-03-01T11:55:40;15.45;;;9.02;;
29382;SDS011;16365;51.598;7.668;2023-03-01T12:10:15;18.38;;;9.40;;
29382;SDS011;16365;51.598;7.668;2023-03-01T12:13:04;14.57;;;8.05;;
29382;SDS011;16365;51.598;7.668;2023-03-01T12:21:37;15.52;;;9.15;;
29382;SDS011;16365;51.598;7.668;2023-03-01T12:27:10;17.30;;;9.55;;
29382;SDS011;16365;51.598;7.668;2023-03-01T12:32:40;28.80;;;9.77;;
29382;SDS011;16365;51.598;7.668;2023-03-01T12:35:29;16.75;;;9.00;;
29382;SDS011;16365;51.598;7.668;2023-03-01T12:43:19;23.48;;;9.38;;
29382;SDS011;16365;51.598;7.668;2023-03-01T12:48:56;16.33;;;8.93;;
29382;SDS011;16365;51.598;7.668;2023-03-01T12:51:37;19.33;;;9.60;;
29382;SDS011;16365;51.598;7.668;2023-03-01T12:54:10;17.60;;;8.82;;
29382;SDS011;16365;51.598;7.668;2023-03-01T12:56:41;16.02;;;9.40;;
29382;SDS011;16365;51.598;7.668;2023-03-01T13:01:37;15.05;;;8.70;;
29382;SDS011;16365;51.598;7.668;2023-03-01T13:12:01;15.90;;;7.95;;
29382;SDS011;16365;51.598;7.668;2023-03-01T13:14:35;15.60;;;8.23;;
29382;SDS011;16365;51.598;7.668;2023-03-01T13:17:03;16.60;;;8.75;;
29382;SDS011;16365;51.598;7.668;2023-03-01T13:19:29;15.15;;;8.35;;
29382;SDS011;16365;51.598;7.668;2023-03-01T13:21:58;14.15;;;7.97;;
29382;SDS011;16365;51.598;7.668;2023-03-01T13:24:41;16.30;;;7.65;;
29382;SDS011;16365;51.598;7.668;2023-03-01T13:27:09;17.52;;;8.00;;
29382;SDS011;16365;51.598;7.668;2023-03-01T13:29:44;14.82;;;7.53;;
29382;SDS011;16365;51.598;7.668;2023-03-01T13:32:21;14.85;;;8.23;;
29382;SDS011;16365;51.598;7.668;2023-03-01T13:37:43;17.83;;;7.75;;
29382;SDS011;16365;51.598;7.668;2023-03-01T13:42:54;14.05;;;7.90;;
29382;SDS011;16365;51.598;7.668;2023-03-01T13:48:09;16.98;;;8.02;;
29382;SDS011;16365;51.598;7.668;2023-03-01T13:50:48;17.08;;;8.63;;
29382;SDS011;16365;51.598;7.668;2023-03-01T13:53:18;13.90;;;7.70;;
29382;SDS011;16365;51.598;7.668;2023-03-01T13:55:50;15.73;;;8.15;;
29382;SDS011;16365;51.598;7.668;2023-03-01T13:58:26;16.35;;;7.72;;
29382;SDS011;16365;51.598;7.668;2023-03-01T14:01:06;18.65;;;7.72;;
29382;SDS011;16365;51.598;7.668;2023-03-01T14:03:46;11.02;;;6.68;;
29382;SDS011;16365;51.598;7.668;2023-03-01T14:06:13;15.15;;;8.48;;
29382;SDS011;16365;51.598;7.668;2023-03-01T14:11:47;14.63;;;7.53;;
29382;SDS011;16365;51.598;7.668;2023-03-01T14:14:48;15.93;;;8.15;;
29382;SDS011;16365;51.598;7.668;2023-03-01T14:20:12;16.13;;;8.02;;
29382;SDS011;16365;51.598;7.668;2023-03-01T14:22:43;14.88;;;7.65;;
29382;SDS011;16365;51.598;7.668;2023-03-01T14:28:00;13.05;;;6.70;;
29382;SDS011;16365;51.598;7.668;2023-03-01T14:30:35;14.75;;;7.43;;
29382;SDS011;16365;51.598;7.668;2023-03-01T14:33:05;14.18;;;7.25;;
29382;SDS011;16365;51.598;7.668;2023-03-01T14:35:51;14.30;;;7.45;;
29382;SDS011;16365;51.598;7.668;2023-03-01T14:38:34;13.43;;;7.28;;
29382;SDS011;16365;51.598;7.668;2023-03-01T14:41:25;17.42;;;7.85;;
29382;SDS011;16365;51.598;7.668;2023-03-01T14:44:00;14.30;;;7.43;;
29382;SDS011;16365;51.598;7.668;2023-03-01T14:46:38;13.95;;;7.18;;
29382;SDS011;16365;51.598;7.668;2023-03-01T14:49:17;13.32;;;6.70;;
29382;SDS011;16365;51.598;7.668;2023-03-01T14:51:56;12.07;;;6.82;;
29382;SDS011;16365;51.598;7.668;2023-03-01T14:54:27;13.45;;;7.00;;
29382;SDS011;16365;51.598;7.668;2023-03-01T14:57:24;12.52;;;7.00;;
29382;SDS011;16365;51.598;7.668;2023-03-01T14:59:53;13.98;;;7.20;;
29382;SDS011;16365;51.598;7.668;2023-03-01T15:02:25;14.02;;;7.15;;
29382;SDS011;16365;51.598;7.668;2023-03-01T15:04:57;15.32;;;7.65;;
29382;SDS011;16365;51.598;7.668;2023-03-01T15:07:37;10.65;;;6.57;;
29382;SDS011;16365;51.598;7.668;2023-03-01T15:10:07;15.52;;;7.22;;
29382;SDS011;16365;51.598;7.668;2023-03-01T15:12:43;11.85;;;6.45;;
29382;SDS011;16365;51.598;7.668;2023-03-01T15:18:00;15.85;;;7.10;;
29382;SDS011;16365;51.598;7.668;2023-03-01T15:20:29;12.52;;;5.95;;
29382;SDS011;16365;51.598;7.668;2023-03-01T15:23:01;11.48;;;6.65;;
29382;SDS011;16365;51.598;7.668;2023-03-01T15:25:28;16.10;;;6.70;;
29382;SDS011;16365;51.598;7.668;2023-03-01T15:27:58;13.60;;;6.90;;
29382;SDS011;16365;51.598;7.668;2023-03-01T15:30:27;11.48;;;6.32;;
29382;SDS011;16365;51.598;7.668;2023-03-01T15:36:02;10.73;;;6.47;;
29382;SDS011;16365;51.598;7.668;2023-03-01T15:41:25;16.40;;;5.97;;
29382;SDS011;16365;51.598;7.668;2023-03-01T15:43:54;11.93;;;6.03;;
29382;SDS011;16365;51.598;7.668;2023-03-01T15:46:26;13.05;;;6.20;;
29382;SDS011;16365;51.598;7.668;2023-03-01T15:48:57;10.82;;;6.10;;
29382;SDS011;16365;51.598;7.668;2023-03-01T15:51:43;10.93;;;5.97;;
29382;SDS011;16365;51.598;7.668;2023-03-01T15:54:18;12.88;;;5.72;;
29382;SDS011;16365;51.598;7.668;2023-03-01T15:56:47;11.10;;;5.75;;
29382;SDS011;16365;51.598;7.668;2023-03-01T15:59:14;11.32;;;5.80;;
29382;SDS011;16365;51.598;7.668;2023-03-01T16:01:42;12.05;;;6.13;;
29382;SDS011;16365;51.598;7.668;2023-03-01T16:04:10;11.77;;;6.45;;
29382;SDS011;16365;51.598;7.668;2023-03-01T16:06:47;13.80;;;6.38;;
29382;SDS011;16365;51.598;7.668;2023-03-01T16:09:21;12.38;;;6.70;;
29382;SDS011;16365;51.598;7.668;2023-03-01T16:11:49;10.32;;;5.95;;
29382;SDS011;16365;51.598;7.668;2023-03-01T16:14:16;12.33;;;6.50;;
29382;SDS011;16365;51.598;7.668;2023-03-01T16:16:43;12.07;;;6.45;;
29382;SDS011;16365;51.598;7.668;2023-03-01T16:19:10;10.38;;;6.55;;
29382;SDS011;16365;51.598;7.668;2023-03-01T16:21:37;13.00;;;6.35;;
29382;SDS011;16365;51.598;7.668;2023-03-01T16:24:04;11.38;;;5.75;;
29382;SDS011;16365;51.598;7.668;2023-03-01T16:26:31;12.05;;;5.30;;
29382;SDS011;16365;51.598;7.668;2023-03-01T16:28:58;13.30;;;6.47;;
29382;SDS011;16365;51.598;7.668;2023-03-01T16:31:25;11.48;;;5.90;;
29382;SDS011;16365;51.598;7.668;2023-03-01T16:33:55;10.23;;;5.70;;
29382;SDS011;16365;51.598;7.668;2023-03-01T16:36:24;10.45;;;5.20;;
29382;SDS011;16365;51.598;7.668;2023-03-01T16:38:54;13.25;;;6.05;;
29382;SDS011;16365;51.598;7.668;2023-03-01T16:41:23;12.23;;;5.63;;
29382;SDS011;16365;51.598;7.668;2023-03-01T16:43:50;15.70;;;5.97;;
29382;SDS011;16365;51.598;7.668;2023-03-01T16:46:22;13.50;;;5.53;;
29382;SDS011;16365;51.598;7.668;2023-03-01T16:48:51;10.40;;;5.38;;